createdAt,value
2023-09-24T00:00:14.662Z,59.71
2023-09-24T00:02:41.598Z,59.80
2023-09-24T00:05:12.969Z,60.06
2023-09-24T00:07:39.702Z,60.01
2023-09-24T00:10:09.752Z,60.08
2023-09-24T00:12:36.846Z,60.08
2023-09-24T00:15:03.999Z,60.20
2023-09-24T00:17:33.705Z,60.33
2023-09-24T00:20:00.534Z,60.18
2023-09-24T00:22:32.482Z,60.34
2023-09-24T00:24:59.725Z,60.26
2023-09-24T00:27:28.522Z,60.30
2023-09-24T00:29:55.134Z,60.45
2023-09-24T00:32:21.849Z,60.09
2023-09-24T00:34:48.490Z,60.11
2023-09-24T00:37:15.120Z,60.25
2023-09-24T00:39:41.734Z,60.44
2023-09-24T00:42:10.748Z,60.71
2023-09-24T00:44:39.858Z,60.29
2023-09-24T00:47:11.055Z,60.57
2023-09-24T00:49:37.767Z,60.66
2023-09-24T00:52:04.719Z,60.63
2023-09-24T00:54:32.407Z,60.63
2023-09-24T00:57:02.297Z,61.11
2023-09-24T00:59:32.164Z,60.92
2023-09-24T01:01:59.740Z,61.01
2023-09-24T01:04:29.090Z,60.78
2023-09-24T01:06:59.059Z,61.03
2023-09-24T01:09:30.590Z,60.93
2023-09-24T01:12:04.432Z,61.39
2023-09-24T01:14:31.174Z,61.05
2023-09-24T01:17:01.309Z,61.04
2023-09-24T01:19:29.140Z,61.26
2023-09-24T01:22:01.682Z,60.86
2023-09-24T01:24:32.195Z,61.44
2023-09-24T01:27:03.806Z,61.21
2023-09-24T01:29:30.552Z,61.55
2023-09-24T01:32:01.983Z,61.45
2023-09-24T01:34:28.781Z,61.32
2023-09-24T01:36:55.484Z,61.92
2023-09-24T01:39:32.470Z,61.60
2023-09-24T01:41:59.258Z,61.84
2023-09-24T01:44:29.410Z,61.70
2023-09-24T01:46:57.005Z,61.89
2023-09-24T01:49:23.671Z,62.05
2023-09-24T01:51:50.445Z,62.04
2023-09-24T01:54:21.021Z,62.09
2023-09-24T01:56:55.521Z,61.95
2023-09-24T01:59:25.247Z,62.02
2023-09-24T02:01:53.562Z,61.89
2023-09-24T02:04:20.187Z,61.77
2023-09-24T02:06:49.765Z,62.32
2023-09-24T02:09:17.690Z,61.90
2023-09-24T02:11:47.231Z,62.52
2023-09-24T02:14:13.851Z,62.10
2023-09-24T02:16:44.242Z,62.22
2023-09-24T02:19:15.582Z,62.38
2023-09-24T02:21:46.895Z,62.54
2023-09-24T02:24:15.840Z,62.41
2023-09-24T02:26:45.930Z,62.62
2023-09-24T02:29:20.179Z,62.33
2023-09-24T02:31:46.979Z,62.67
2023-09-24T02:34:13.649Z,62.78
2023-09-24T02:36:42.521Z,62.75
2023-09-24T02:39:09.163Z,62.72
2023-09-24T02:41:38.161Z,62.75
2023-09-24T02:44:05.140Z,62.61
2023-09-24T02:46:31.802Z,62.86
2023-09-24T02:48:58.447Z,62.95
2023-09-24T02:51:25.060Z,62.92
2023-09-24T02:53:54.015Z,62.54
2023-09-24T02:56:20.690Z,62.79
2023-09-24T02:58:47.336Z,62.91
2023-09-24T03:01:17.423Z,62.89
2023-09-24T03:03:44.213Z,62.69
2023-09-24T03:06:11.020Z,63.17
2023-09-24T03:08:37.751Z,63.10
2023-09-24T03:11:15.426Z,62.66
2023-09-24T03:13:42.732Z,62.98
2023-09-24T03:16:10.207Z,63.16
2023-09-24T03:18:37.053Z,63.34
2023-09-24T03:21:07.601Z,63.11
2023-09-24T03:23:37.870Z,63.50
2023-09-24T03:26:07.681Z,63.11
2023-09-24T03:28:34.283Z,63.34
2023-09-24T03:31:01.032Z,63.06
2023-09-24T03:33:29.372Z,62.92
2023-09-24T03:35:58.376Z,63.05
2023-09-24T03:38:25.079Z,63.48
2023-09-24T03:40:55.240Z,63.21
2023-09-24T03:43:23.981Z,63.24
2023-09-24T03:45:50.633Z,63.45
2023-09-24T03:48:19.638Z,63.27
2023-09-24T03:50:48.561Z,63.59
2023-09-24T03:53:16.790Z,63.36
2023-09-24T03:55:49.251Z,63.63
2023-09-24T03:58:19.138Z,63.39
2023-09-24T04:00:45.955Z,63.52
2023-09-24T04:03:15.112Z,63.40
2023-09-24T04:05:44.170Z,63.30
2023-09-24T04:08:13.060Z,63.76
2023-09-24T04:10:42.590Z,63.70
2023-09-24T04:13:09.341Z,63.63
2023-09-24T04:15:35.949Z,63.56
2023-09-24T04:18:02.982Z,63.86
2023-09-24T04:20:32.713Z,63.45
2023-09-24T04:22:59.377Z,63.84
2023-09-24T04:25:28.035Z,63.80
2023-09-24T04:27:57.508Z,63.49
2023-09-24T04:30:25.699Z,63.50
2023-09-24T04:33:03.752Z,63.76
2023-09-24T04:35:30.510Z,63.47
2023-09-24T04:37:57.156Z,63.88
2023-09-24T04:40:24.411Z,64.11
2023-09-24T04:42:52.421Z,64.02
2023-09-24T04:45:20.161Z,63.53
2023-09-24T04:47:50.139Z,63.92
2023-09-24T04:50:17.405Z,64.19
2023-09-24T04:52:46.834Z,64.04
2023-09-24T04:55:16.089Z,64.45
2023-09-24T04:57:45.762Z,64.04
2023-09-24T05:00:14.490Z,63.79
2023-09-24T05:02:41.254Z,64.01
2023-09-24T05:05:08.487Z,64.04
2023-09-24T05:07:35.249Z,63.83
2023-09-24T05:10:01.868Z,64.24
2023-09-24T05:12:33.236Z,64.41
2023-09-24T05:14:59.917Z,64.21
2023-09-24T05:17:26.661Z,63.95
2023-09-24T05:19:53.370Z,64.29
2023-09-24T05:22:20.100Z,64.43
2023-09-24T05:24:48.946Z,64.39
2023-09-24T05:27:20.616Z,64.28
2023-09-24T05:29:48.119Z,64.56
2023-09-24T05:32:17.004Z,64.51
2023-09-24T05:34:45.878Z,64.30
2023-09-24T05:37:12.529Z,64.50
2023-09-24T05:39:39.159Z,64.37
2023-09-24T05:42:06.301Z,64.73
2023-09-24T05:44:35.513Z,64.58
2023-09-24T05:47:08.130Z,64.17
2023-09-24T05:49:37.052Z,64.44
2023-09-24T05:52:06.061Z,64.77
2023-09-24T05:54:34.957Z,64.50
2023-09-24T05:57:02.991Z,64.87
2023-09-24T05:59:29.734Z,64.97
2023-09-24T06:01:56.434Z,64.44
2023-09-24T06:04:23.364Z,64.51
2023-09-24T06:06:57.402Z,64.85
2023-09-24T06:09:29.511Z,64.91
2023-09-24T06:11:58.628Z,64.44
2023-09-24T06:14:25.360Z,64.52
2023-09-24T06:16:52.059Z,64.87
2023-09-24T06:19:18.805Z,64.80
2023-09-24T06:21:45.455Z,65.06
2023-09-24T06:24:14.728Z,64.58
2023-09-24T06:26:42.065Z,65.45
2023-09-24T06:29:12.170Z,65.82
2023-09-24T06:31:39.877Z,65.82
2023-09-24T06:34:07.182Z,67.05
2023-09-24T06:36:39.248Z,67.31
2023-09-24T06:39:09.899Z,67.62
2023-09-24T06:41:38.690Z,66.99
2023-09-24T06:44:05.540Z,67.28
2023-09-24T06:46:32.242Z,67.37
2023-09-24T06:48:58.933Z,67.50
2023-09-24T06:51:25.644Z,67.29
2023-09-24T06:53:57.261Z,67.35
2023-09-24T06:56:27.024Z,66.98
2023-09-24T06:58:53.871Z,67.64
2023-09-24T07:01:23.487Z,67.38
2023-09-24T07:03:50.707Z,67.64
2023-09-24T07:06:18.769Z,67.72
2023-09-24T07:08:47.714Z,67.46
2023-09-24T07:11:29.130Z,68.06
2023-09-24T07:13:56.587Z,67.35
2023-09-24T07:16:28.778Z,67.57
2023-09-24T07:18:56.125Z,67.74
2023-09-24T07:21:34.530Z,67.54
2023-09-24T07:24:05.610Z,68.14
2023-09-24T07:26:32.962Z,68.10
2023-09-24T07:29:01.375Z,67.83
2023-09-24T07:31:30.539Z,68.42
2023-09-24T07:33:59.618Z,68.12
2023-09-24T07:38:59.151Z,68.88
2023-09-24T07:41:25.817Z,69.04
2023-09-24T07:43:52.516Z,69.25
2023-09-24T07:46:20.794Z,69.31
2023-09-24T07:48:49.113Z,69.23
2023-09-24T07:51:19.586Z,69.33
2023-09-24T07:53:47.913Z,69.47
2023-09-24T07:56:17.561Z,69.46
2023-09-24T07:58:44.301Z,69.67
2023-09-24T08:01:20.186Z,69.29
2023-09-24T08:03:50.489Z,69.52
2023-09-24T08:06:19.692Z,70.01
2023-09-24T08:08:53.190Z,69.93
2023-09-24T08:11:24.830Z,69.78
2023-09-24T08:13:54.215Z,68.87
2023-09-24T08:16:26.505Z,68.94
2023-09-24T08:18:53.321Z,68.95
2023-09-24T08:21:20.693Z,68.79
2023-09-24T08:23:48.167Z,68.73
2023-09-24T08:26:17.593Z,68.93
2023-09-24T08:28:44.801Z,68.63
2023-09-24T08:31:12.273Z,68.36
2023-09-24T08:33:39.226Z,68.37
2023-09-24T08:36:10.411Z,68.48
2023-09-24T08:38:39.642Z,67.82
2023-09-24T08:41:13.368Z,67.96
2023-09-24T08:43:45.881Z,68.14
2023-09-24T08:46:15.225Z,68.64
2023-09-24T08:48:42.391Z,68.40
2023-09-24T08:51:10.940Z,68.97
2023-09-24T08:53:41.952Z,69.03
2023-09-24T08:56:12.131Z,68.86
2023-09-24T08:58:40.110Z,68.55
2023-09-24T09:01:10.853Z,68.48
2023-09-24T09:03:38.266Z,68.46
2023-09-24T09:06:05.272Z,68.27
2023-09-24T09:08:58.175Z,68.10
2023-09-24T09:11:40.285Z,68.28
2023-09-24T09:14:07.491Z,67.96
2023-09-24T09:16:35.076Z,68.34
2023-09-24T09:19:02.999Z,68.36
2023-09-24T09:21:31.006Z,67.97
2023-09-24T09:24:02.757Z,67.68
2023-09-24T09:26:34.774Z,67.44
2023-09-24T09:29:05.316Z,67.59
2023-09-24T09:31:32.134Z,67.32
2023-09-24T09:34:07.931Z,67.69
2023-09-24T09:36:35.928Z,67.30
2023-09-24T09:39:04.350Z,67.61
2023-09-24T09:41:34.506Z,67.21
2023-09-24T09:44:08.747Z,67.08
2023-09-24T09:46:36.603Z,67.30
2023-09-24T09:49:08.982Z,67.87
2023-09-24T09:51:53.735Z,67.75
2023-09-24T09:54:22.716Z,67.91
2023-09-24T09:56:50.283Z,67.54
2023-09-24T09:59:17.892Z,68.16
2023-09-24T10:01:44.750Z,67.91
2023-09-24T10:04:15.110Z,68.10
2023-09-24T10:06:42.233Z,67.69
2023-09-24T10:09:27.988Z,68.57
2023-09-24T10:12:00.122Z,68.32
2023-09-24T10:14:34.018Z,68.02
2023-09-24T10:17:26.686Z,67.70
2023-09-24T10:20:07.889Z,67.24
2023-09-24T10:22:41.867Z,66.77
2023-09-24T10:25:33.612Z,66.66
2023-09-24T10:28:10.240Z,66.07
2023-09-24T10:31:06.846Z,65.47
2023-09-24T10:33:52.429Z,65.82
2023-09-24T10:36:27.478Z,65.25
2023-09-24T10:39:14.009Z,65.12
2023-09-24T10:42:09.955Z,64.66
2023-09-24T10:44:37.349Z,63.85
2023-09-24T10:47:29.130Z,63.74
2023-09-24T10:50:13.955Z,63.58
2023-09-24T10:52:56.717Z,63.30
2023-09-24T10:55:32.268Z,63.21
2023-09-24T10:58:03.936Z,63.99
2023-09-24T11:00:32.576Z,63.86
2023-09-24T11:03:09.641Z,63.97
2023-09-24T11:05:42.436Z,63.53
2023-09-24T11:08:10.764Z,63.65
2023-09-24T11:10:38.201Z,63.56
2023-09-24T11:13:08.601Z,63.77
2023-09-24T11:15:38.188Z,63.40
2023-09-24T11:18:06.455Z,63.19
2023-09-24T11:20:35.996Z,63.07
2023-09-24T11:23:10.071Z,63.44
2023-09-24T11:25:37.415Z,63.24
2023-09-24T11:28:07.400Z,63.21
2023-09-24T11:30:52.210Z,63.37
2023-09-24T11:33:49.743Z,63.08
2023-09-24T11:36:21.882Z,63.41
2023-09-24T11:38:49.046Z,63.74
2023-09-24T11:41:15.980Z,64.00
2023-09-24T11:43:46.071Z,64.06
2023-09-24T11:46:23.579Z,63.69
2023-09-24T11:48:56.279Z,64.36
2023-09-24T11:51:23.594Z,64.49
2023-09-24T11:53:52.852Z,64.55
2023-09-24T11:56:19.773Z,64.05
2023-09-24T11:58:46.855Z,63.63
2023-09-24T12:01:15.183Z,64.01
2023-09-24T12:03:44.039Z,63.93
2023-09-24T12:10:22.834Z,63.70
2023-09-24T12:12:51.165Z,63.80
2023-09-24T12:15:25.132Z,63.78
2023-09-24T12:17:56.408Z,63.90
2023-09-24T12:20:23.986Z,63.67
2023-09-24T12:22:50.909Z,63.24
2023-09-24T12:25:17.537Z,63.17
2023-09-24T12:27:49.065Z,62.93
2023-09-24T12:30:15.827Z,62.90
2023-09-24T12:32:45.336Z,62.81
2023-09-24T12:35:14.304Z,62.58
2023-09-24T12:37:42.120Z,62.69
2023-09-24T12:40:15.034Z,62.89
2023-09-24T12:42:43.857Z,62.82
2023-09-24T12:45:14.395Z,62.47
2023-09-24T12:47:44.145Z,62.13
2023-09-24T12:50:12.806Z,62.16
2023-09-24T12:52:48.505Z,61.97
2023-09-24T12:55:18.266Z,62.13
2023-09-24T12:57:46.505Z,62.12
2023-09-24T13:00:17.991Z,61.82
2023-09-24T13:02:47.369Z,61.76
2023-09-24T13:05:16.924Z,62.14
2023-09-24T13:07:47.789Z,61.55
2023-09-24T13:10:17.741Z,61.71
2023-09-24T13:12:45.836Z,61.36
2023-09-24T13:15:17.572Z,61.44
2023-09-24T13:17:44.393Z,61.30
2023-09-24T13:20:11.984Z,61.37
2023-09-24T13:22:39.850Z,61.48
2023-09-24T13:25:07.116Z,60.94
2023-09-24T13:27:34.854Z,61.03
2023-09-24T13:30:04.167Z,61.36
2023-09-24T13:32:32.881Z,61.40
2023-09-24T13:35:05.429Z,61.56
2023-09-24T13:37:34.931Z,61.40
2023-09-24T13:40:01.750Z,61.14
2023-09-24T13:42:34.391Z,61.34
2023-09-24T13:45:01.124Z,61.13
2023-09-24T13:47:27.937Z,60.87
2023-09-24T13:49:54.762Z,60.42
2023-09-24T13:52:23.876Z,59.94
2023-09-24T13:54:50.545Z,60.12
2023-09-24T13:57:17.351Z,59.63
2023-09-24T13:59:44.216Z,59.97
2023-09-24T14:02:11.120Z,59.54
2023-09-24T14:04:40.160Z,59.49
2023-09-24T14:07:06.977Z,59.43
2023-09-24T14:09:52.319Z,59.48
2023-09-24T14:12:23.288Z,59.69
2023-09-24T14:14:55.978Z,59.45
2023-09-24T14:17:22.925Z,59.54
2023-09-24T14:19:49.819Z,59.55
2023-09-24T14:22:16.651Z,59.58
2023-09-24T14:24:43.347Z,59.59
2023-09-24T14:27:12.498Z,58.95
2023-09-24T14:29:39.311Z,58.87
2023-09-24T14:32:06.116Z,58.78
2023-09-24T14:34:33.202Z,58.81
2023-09-24T14:36:59.939Z,58.68
2023-09-24T14:39:26.732Z,58.33
2023-09-24T14:41:53.459Z,58.27
2023-09-24T14:44:22.376Z,58.03
2023-09-24T14:46:51.387Z,58.25
2023-09-24T14:49:21.000Z,58.08
2023-09-24T14:51:50.308Z,58.26
2023-09-24T14:54:17.053Z,58.30
2023-09-24T14:56:43.807Z,58.65
2023-09-24T14:59:11.224Z,58.53
2023-09-24T15:01:40.759Z,58.82
2023-09-24T15:04:09.913Z,58.77
2023-09-24T15:06:36.718Z,58.92
2023-09-24T15:09:06.555Z,58.99
2023-09-24T15:11:34.718Z,59.11
2023-09-24T15:14:01.498Z,59.44
2023-09-24T15:16:30.739Z,59.28
2023-09-24T15:19:02.149Z,59.33
2023-09-24T15:21:28.907Z,59.13
2023-09-24T15:23:55.794Z,59.38
2023-09-24T15:26:22.473Z,59.31
2023-09-24T15:28:51.992Z,59.69
2023-09-24T15:31:20.151Z,59.60
2023-09-24T15:33:47.085Z,59.47
2023-09-24T15:36:17.241Z,59.69
2023-09-24T15:38:43.936Z,59.78
2023-09-24T15:41:10.596Z,59.40
2023-09-24T15:43:39.678Z,59.60
2023-09-24T15:46:13.216Z,59.89
2023-09-24T15:48:39.988Z,59.77
2023-09-24T15:51:09.076Z,59.67
2023-09-24T15:53:35.827Z,59.80
2023-09-24T15:56:02.583Z,60.02
2023-09-24T15:58:29.252Z,59.78
2023-09-24T16:00:55.925Z,59.98
2023-09-24T16:03:22.716Z,60.02
2023-09-24T16:05:51.772Z,59.89
2023-09-24T16:08:21.112Z,60.32
2023-09-24T16:10:50.539Z,60.09
2023-09-24T16:13:17.297Z,59.93
2023-09-24T16:15:48.317Z,59.90
2023-09-24T16:18:15.380Z,60.03
2023-09-24T16:20:47.021Z,60.05
2023-09-24T16:23:13.760Z,59.87
2023-09-24T16:25:40.378Z,60.16
2023-09-24T16:28:07.044Z,60.13
2023-09-24T16:30:33.935Z,60.00
2023-09-24T16:33:00.724Z,61.02
2023-09-24T16:35:29.464Z,62.99
2023-09-24T16:37:56.124Z,64.66
2023-09-24T16:40:24.953Z,66.73
2023-09-24T16:42:55.567Z,68.22
2023-09-24T16:45:22.477Z,69.71
2023-09-24T16:47:49.315Z,70.20
2023-09-24T16:50:18.490Z,69.96
2023-09-24T16:52:45.118Z,69.14
2023-09-24T16:55:14.534Z,68.86
2023-09-24T16:57:41.226Z,68.24
2023-09-24T17:00:12.077Z,67.84
2023-09-24T17:02:38.992Z,67.37
2023-09-24T17:05:06.281Z,66.84
2023-09-24T17:07:32.950Z,66.58
2023-09-24T17:10:04.240Z,66.28
2023-09-24T17:12:33.561Z,66.32
2023-09-24T17:15:00.433Z,66.00
2023-09-24T17:17:37.019Z,65.31
2023-09-24T17:20:05.565Z,64.71
2023-09-24T17:22:32.417Z,64.06
2023-09-24T17:25:02.494Z,64.41
2023-09-24T17:27:31.461Z,64.32
2023-09-24T17:29:58.370Z,64.04
2023-09-24T17:34:51.945Z,63.45
2023-09-24T17:37:18.572Z,63.41
2023-09-24T17:39:45.201Z,63.57
2023-09-24T17:42:11.883Z,63.25
2023-09-24T17:44:38.539Z,63.55
2023-09-24T17:47:05.287Z,63.07
2023-09-24T17:49:31.934Z,63.25
2023-09-24T17:52:01.542Z,63.18
2023-09-24T17:54:28.395Z,63.19
2023-09-24T17:56:57.289Z,63.35
2023-09-24T17:59:24.066Z,63.01
2023-09-24T18:01:52.816Z,63.08
2023-09-24T18:04:19.634Z,63.21
2023-09-24T18:06:46.570Z,63.00
2023-09-24T18:09:15.552Z,63.17
2023-09-24T18:11:44.418Z,63.01
2023-09-24T18:14:11.070Z,63.25
2023-09-24T18:16:40.021Z,63.30
2023-09-24T18:19:08.904Z,63.15
2023-09-24T18:21:38.115Z,63.49
2023-09-24T18:24:05.128Z,63.61
2023-09-24T18:26:31.825Z,63.03
2023-09-24T18:28:58.745Z,63.38
2023-09-24T18:31:25.514Z,63.10
2023-09-24T18:33:52.438Z,63.03
2023-09-24T18:36:19.297Z,63.57
2023-09-24T18:38:46.058Z,63.25
2023-09-24T18:41:14.127Z,63.80
2023-09-24T18:43:43.111Z,63.85
2023-09-24T18:46:09.811Z,63.58
2023-09-24T18:48:37.425Z,63.90
2023-09-24T18:51:17.241Z,64.29
2023-09-24T18:53:43.914Z,64.14
2023-09-24T18:56:10.556Z,64.28
2023-09-24T18:58:37.379Z,64.13
2023-09-24T19:01:08.504Z,64.55
2023-09-24T19:06:13.344Z,64.44
2023-09-24T19:08:40.137Z,64.74
2023-09-24T19:11:11.060Z,64.56
2023-09-24T19:13:37.760Z,64.47
2023-09-24T19:16:06.531Z,64.86
2023-09-24T19:18:34.406Z,64.59
2023-09-24T19:21:03.787Z,65.04
2023-09-24T19:23:32.317Z,65.22
2023-09-24T19:26:10.038Z,64.92
2023-09-24T19:28:36.918Z,64.91
2023-09-24T19:31:10.804Z,64.97
2023-09-24T19:33:40.457Z,65.35
2023-09-24T19:36:08.748Z,65.36
2023-09-24T19:38:36.213Z,65.21
2023-09-24T19:41:06.564Z,65.02
2023-09-24T19:43:35.649Z,65.39
2023-09-24T19:46:03.283Z,65.45
2023-09-24T19:48:33.011Z,65.01
2023-09-24T19:51:00.358Z,65.40
2023-09-24T19:53:27.312Z,65.52
2023-09-24T19:55:56.551Z,65.53
2023-09-24T19:58:26.857Z,65.57
2023-09-24T20:00:59.428Z,65.31
2023-09-24T20:03:26.310Z,65.65
2023-09-24T20:05:54.031Z,65.25
2023-09-24T20:08:24.584Z,65.22
2023-09-24T20:10:51.432Z,65.32
2023-09-24T20:13:18.140Z,65.52
2023-09-24T20:15:44.937Z,65.71
2023-09-24T20:18:11.904Z,65.85
2023-09-24T20:20:38.650Z,65.88
2023-09-24T20:23:05.934Z,65.83
2023-09-24T20:25:41.367Z,65.60
2023-09-24T20:28:08.041Z,65.76
2023-09-24T20:30:34.892Z,65.84
2023-09-24T20:33:10.087Z,65.57
2023-09-24T20:35:46.749Z,65.77
2023-09-24T20:38:15.624Z,65.59
2023-09-24T20:40:43.301Z,66.03
2023-09-24T20:43:13.224Z,65.51
2023-09-24T20:45:56.108Z,65.94
2023-09-24T20:48:22.962Z,66.09
2023-09-24T20:50:49.654Z,65.63
2023-09-24T20:53:16.346Z,65.96
2023-09-24T20:55:43.036Z,65.42
2023-09-24T20:58:12.326Z,65.56
2023-09-24T21:00:42.301Z,65.55
2023-09-24T21:03:10.314Z,65.77
2023-09-24T21:05:37.232Z,65.51
2023-09-24T21:08:05.871Z,65.60
2023-09-24T21:10:32.546Z,65.59
2023-09-24T21:12:59.192Z,65.79
2023-09-24T21:15:30.762Z,65.70
2023-09-24T21:17:57.467Z,65.94
2023-09-24T21:20:24.827Z,66.04
2023-09-24T21:22:51.499Z,65.75
2023-09-24T21:25:18.869Z,65.53
2023-09-24T21:27:48.306Z,65.65
2023-09-24T21:30:15.285Z,65.87
2023-09-24T21:32:42.046Z,66.07
2023-09-24T21:35:09.008Z,66.63
2023-09-24T21:37:35.676Z,66.71
2023-09-24T21:40:04.982Z,66.41
2023-09-24T21:42:31.707Z,66.80
2023-09-24T21:45:01.859Z,66.35
2023-09-24T21:47:30.618Z,66.63
2023-09-24T21:49:57.281Z,66.92
2023-09-24T21:52:24.009Z,66.91
2023-09-24T21:54:54.170Z,66.52
2023-09-24T21:57:26.755Z,66.46
2023-09-24T21:59:53.475Z,66.87
2023-09-24T22:02:22.586Z,66.63
2023-09-24T22:04:50.340Z,66.65
2023-09-24T22:07:17.060Z,66.96
2023-09-24T22:09:43.737Z,66.47
2023-09-24T22:12:10.425Z,66.64
2023-09-24T22:14:37.036Z,66.26
2023-09-24T22:17:04.432Z,66.77
2023-09-24T22:19:31.061Z,66.38
2023-09-24T22:21:59.890Z,66.29
2023-09-24T22:24:29.074Z,66.30
2023-09-24T22:26:56.026Z,66.62
2023-09-24T22:29:22.700Z,66.68
2023-09-24T22:31:52.617Z,66.63
2023-09-24T22:34:22.277Z,66.82
2023-09-24T22:36:53.709Z,66.44
2023-09-24T22:39:20.467Z,66.76
2023-09-24T22:41:51.232Z,66.26
2023-09-24T22:44:20.814Z,66.72
2023-09-24T22:46:47.485Z,66.67
2023-09-24T22:49:14.709Z,66.44
2023-09-24T22:51:41.360Z,66.55
2023-09-24T22:54:08.092Z,66.60
2023-09-24T22:56:34.753Z,66.35
2023-09-24T22:59:01.438Z,66.69
2023-09-24T23:01:31.844Z,66.62
2023-09-24T23:03:58.550Z,66.49
2023-09-24T23:06:25.289Z,66.24
2023-09-24T23:08:52.114Z,66.18
2023-09-24T23:11:21.105Z,66.45
2023-09-24T23:13:50.203Z,66.68
2023-09-24T23:16:16.848Z,66.28
2023-09-24T23:18:43.568Z,66.46
2023-09-24T23:21:13.691Z,66.46
2023-09-24T23:23:40.380Z,66.57
2023-09-24T23:26:09.229Z,66.89
2023-09-24T23:28:35.967Z,66.59
2023-09-24T23:31:05.206Z,66.54
2023-09-24T23:33:31.995Z,66.77
2023-09-24T23:36:00.123Z,67.02
2023-09-24T23:38:29.450Z,67.08
2023-09-24T23:40:56.555Z,66.77
2023-09-24T23:43:23.423Z,66.93
2023-09-24T23:45:52.422Z,67.14
2023-09-24T23:48:19.132Z,67.20
2023-09-24T23:50:45.999Z,66.84
2023-09-24T23:53:15.841Z,67.33
2023-09-24T23:55:42.607Z,67.21
2023-09-24T23:58:09.262Z,67.33
